sensor_id;sensor_type;location;lat;lon;timestamp;temperature;humidity
65072;DHT22;51663;52.310;17.016;2023-03-31T00:02:39;31.00;30.10
65072;DHT22;51663;52.310;17.016;2023-03-31T00:05:44;31.20;30.00
65072;DHT22;51663;52.310;17.016;2023-03-31T00:08:48;31.20;30.00
65072;DHT22;51663;52.310;17.016;2023-03-31T00:11:54;31.30;29.80
65072;DHT22;51663;52.310;17.016;2023-03-31T00:14:56;31.10;29.90
65072;DHT22;51663;52.310;17.016;2023-03-31T00:17:58;31.00;29.90
65072;DHT22;51663;52.310;17.016;2023-03-31T00:21:13;31.10;29.70
65072;DHT22;51663;52.310;17.016;2023-03-31T00:24:27;31.10;29.80
65072;DHT22;51663;52.310;17.016;2023-03-31T00:27:34;30.70;30.00
65072;DHT22;51663;52.310;17.016;2023-03-31T00:30:36;30.50;30.10
65072;DHT22;51663;52.310;17.016;2023-03-31T00:33:38;30.80;29.80
65072;DHT22;51663;52.310;17.016;2023-03-31T00:36:41;30.80;29.60
65072;DHT22;51663;52.310;17.016;2023-03-31T00:39:48;30.40;30.00
65072;DHT22;51663;52.310;17.016;2023-03-31T00:42:50;30.30;30.00
65072;DHT22;51663;52.310;17.016;2023-03-31T00:46:04;30.10;30.40
65072;DHT22;51663;52.310;17.016;2023-03-31T00:52:32;30.60;30.20
65072;DHT22;51663;52.310;17.016;2023-03-31T00:55:45;30.70;30.00
65072;DHT22;51663;52.310;17.016;2023-03-31T00:58:48;30.60;29.90
65072;DHT22;51663;52.310;17.016;2023-03-31T01:01:51;30.60;29.80
65072;DHT22;51663;52.310;17.016;2023-03-31T01:04:58;30.70;29.60
65072;DHT22;51663;52.310;17.016;2023-03-31T01:08:03;30.70;29.70
65072;DHT22;51663;52.310;17.016;2023-03-31T01:11:09;30.70;29.60
65072;DHT22;51663;52.310;17.016;2023-03-31T01:14:13;30.60;29.60
65072;DHT22;51663;52.310;17.016;2023-03-31T01:17:21;30.30;29.70
65072;DHT22;51663;52.310;17.016;2023-03-31T01:34:38;30.20;29.50
65072;DHT22;51663;52.310;17.016;2023-03-31T01:44:53;30.10;29.60
65072;DHT22;51663;52.310;17.016;2023-03-31T01:48:07;29.80;29.90
65072;DHT22;51663;52.310;17.016;2023-03-31T01:51:37;29.90;29.80
65072;DHT22;51663;52.310;17.016;2023-03-31T01:58:20;29.90;30.00
65072;DHT22;51663;52.310;17.016;2023-03-31T02:01:31;30.10;30.00
65072;DHT22;51663;52.310;17.016;2023-03-31T02:04:42;30.00;30.20
65072;DHT22;51663;52.310;17.016;2023-03-31T02:07:49;30.00;30.10
65072;DHT22;51663;52.310;17.016;2023-03-31T02:10:54;29.90;30.30
65072;DHT22;51663;52.310;17.016;2023-03-31T02:13:58;30.10;30.70
65072;DHT22;51663;52.310;17.016;2023-03-31T02:17:04;29.80;30.50
65072;DHT22;51663;52.310;17.016;2023-03-31T02:20:11;29.70;30.60
65072;DHT22;51663;52.310;17.016;2023-03-31T02:23:20;29.20;31.50
65072;DHT22;51663;52.310;17.016;2023-03-31T02:26:26;29.50;31.20
65072;DHT22;51663;52.310;17.016;2023-03-31T02:29:29;29.60;30.70
65072;DHT22;51663;52.310;17.016;2023-03-31T02:35:39;29.70;30.90
65072;DHT22;51663;52.310;17.016;2023-03-31T02:39:37;29.90;30.50
65072;DHT22;51663;52.310;17.016;2023-03-31T02:42:33;30.20;30.10
65072;DHT22;51663;52.310;17.016;2023-03-31T02:45:40;30.40;29.90
65072;DHT22;51663;52.310;17.016;2023-03-31T02:48:47;30.50;30.00
65072;DHT22;51663;52.310;17.016;2023-03-31T03:08:28;30.30;29.70
65072;DHT22;51663;52.310;17.016;2023-03-31T03:15:01;30.10;30.00
65072;DHT22;51663;52.310;17.016;2023-03-31T03:18:06;30.10;30.00
65072;DHT22;51663;52.310;17.016;2023-03-31T03:21:09;30.20;30.00
65072;DHT22;51663;52.310;17.016;2023-03-31T03:24:11;30.40;29.70
65072;DHT22;51663;52.310;17.016;2023-03-31T03:27:14;30.50;29.60
65072;DHT22;51663;52.310;17.016;2023-03-31T03:30:16;30.70;29.40
65072;DHT22;51663;52.310;17.016;2023-03-31T03:33:19;30.90;29.20
65072;DHT22;51663;52.310;17.016;2023-03-31T03:36:25;30.90;29.20
65072;DHT22;51663;52.310;17.016;2023-03-31T03:39:28;30.90;29.20
65072;DHT22;51663;52.310;17.016;2023-03-31T03:42:30;30.80;29.30
65072;DHT22;51663;52.310;17.016;2023-03-31T03:45:32;30.80;29.40
65072;DHT22;51663;52.310;17.016;2023-03-31T03:48:34;30.80;29.30
65072;DHT22;51663;52.310;17.016;2023-03-31T03:51:37;30.90;29.20
65072;DHT22;51663;52.310;17.016;2023-03-31T03:54:39;30.90;29.30
65072;DHT22;51663;52.310;17.016;2023-03-31T03:57:41;30.90;29.30
65072;DHT22;51663;52.310;17.016;2023-03-31T04:00:43;30.80;29.40
65072;DHT22;51663;52.310;17.016;2023-03-31T04:03:46;30.80;29.80
65072;DHT22;51663;52.310;17.016;2023-03-31T04:06:48;30.80;29.30
65072;DHT22;51663;52.310;17.016;2023-03-31T04:09:51;30.80;29.30
65072;DHT22;51663;52.310;17.016;2023-03-31T04:12:53;31.00;29.10
65072;DHT22;51663;52.310;17.016;2023-03-31T04:15:56;30.80;29.20
65072;DHT22;51663;52.310;17.016;2023-03-31T04:18:59;30.90;29.10
65072;DHT22;51663;52.310;17.016;2023-03-31T04:22:04;30.60;29.40
65072;DHT22;51663;52.310;17.016;2023-03-31T04:25:08;30.70;29.40
65072;DHT22;51663;52.310;17.016;2023-03-31T04:28:20;30.20;29.60
65072;DHT22;51663;52.310;17.016;2023-03-31T04:31:23;30.70;29.50
65072;DHT22;51663;52.310;17.016;2023-03-31T04:34:28;30.80;29.20
65072;DHT22;51663;52.310;17.016;2023-03-31T04:37:36;30.70;29.40
65072;DHT22;51663;52.310;17.016;2023-03-31T04:40:39;30.40;29.80
65072;DHT22;51663;52.310;17.016;2023-03-31T04:43:42;30.60;29.60
65072;DHT22;51663;52.310;17.016;2023-03-31T04:46:44;31.00;29.30
65072;DHT22;51663;52.310;17.016;2023-03-31T04:49:46;30.70;29.40
65072;DHT22;51663;52.310;17.016;2023-03-31T04:52:49;30.70;29.50
65072;DHT22;51663;52.310;17.016;2023-03-31T04:55:51;30.70;29.40
65072;DHT22;51663;52.310;17.016;2023-03-31T04:58:53;30.60;29.50
65072;DHT22;51663;52.310;17.016;2023-03-31T05:01:55;30.80;29.40
65072;DHT22;51663;52.310;17.016;2023-03-31T05:04:58;30.80;29.40
65072;DHT22;51663;52.310;17.016;2023-03-31T05:08:00;31.00;29.20
65072;DHT22;51663;52.310;17.016;2023-03-31T05:11:03;30.80;29.30
65072;DHT22;51663;52.310;17.016;2023-03-31T05:14:05;30.90;29.20
65072;DHT22;51663;52.310;17.016;2023-03-31T05:17:08;31.20;29.20
65072;DHT22;51663;52.310;17.016;2023-03-31T05:20:11;31.10;29.20
65072;DHT22;51663;52.310;17.016;2023-03-31T05:23:14;31.10;29.10
65072;DHT22;51663;52.310;17.016;2023-03-31T05:26:16;31.20;29.20
65072;DHT22;51663;52.310;17.016;2023-03-31T05:29:19;31.30;28.90
65072;DHT22;51663;52.310;17.016;2023-03-31T05:32:21;31.20;28.90
65072;DHT22;51663;52.310;17.016;2023-03-31T05:35:24;31.40;29.00
65072;DHT22;51663;52.310;17.016;2023-03-31T05:38:27;31.60;28.90
65072;DHT22;51663;52.310;17.016;2023-03-31T05:41:30;31.50;28.70
65072;DHT22;51663;52.310;17.016;2023-03-31T05:44:32;31.50;28.90
65072;DHT22;51663;52.310;17.016;2023-03-31T05:47:36;31.40;29.00
65072;DHT22;51663;52.310;17.016;2023-03-31T05:50:38;31.50;28.90
65072;DHT22;51663;52.310;17.016;2023-03-31T05:53:40;31.50;29.00
65072;DHT22;51663;52.310;17.016;2023-03-31T05:56:42;31.50;28.90
65072;DHT22;51663;52.310;17.016;2023-03-31T05:59:45;31.10;29.20
65072;DHT22;51663;52.310;17.016;2023-03-31T06:02:47;31.60;29.00
65072;DHT22;51663;52.310;17.016;2023-03-31T06:05:49;31.00;29.20
65072;DHT22;51663;52.310;17.016;2023-03-31T06:08:54;31.20;29.20
65072;DHT22;51663;52.310;17.016;2023-03-31T06:11:57;31.40;29.00
65072;DHT22;51663;52.310;17.016;2023-03-31T06:14:59;31.70;29.00
65072;DHT22;51663;52.310;17.016;2023-03-31T06:18:01;32.00;28.80
65072;DHT22;51663;52.310;17.016;2023-03-31T06:21:04;32.00;28.50
65072;DHT22;51663;52.310;17.016;2023-03-31T06:24:08;32.30;28.50
65072;DHT22;51663;52.310;17.016;2023-03-31T06:27:10;32.10;28.50
65072;DHT22;51663;52.310;17.016;2023-03-31T06:30:13;32.20;28.60
65072;DHT22;51663;52.310;17.016;2023-03-31T06:33:15;31.90;28.70
65072;DHT22;51663;52.310;17.016;2023-03-31T06:36:19;31.60;29.00
65072;DHT22;51663;52.310;17.016;2023-03-31T06:39:22;31.80;28.80
65072;DHT22;51663;52.310;17.016;2023-03-31T06:42:27;32.20;28.80
65072;DHT22;51663;52.310;17.016;2023-03-31T06:45:29;32.40;28.30
65072;DHT22;51663;52.310;17.016;2023-03-31T06:48:32;32.40;28.50
65072;DHT22;51663;52.310;17.016;2023-03-31T06:51:34;32.50;28.30
65072;DHT22;51663;52.310;17.016;2023-03-31T06:54:36;32.50;28.30
65072;DHT22;51663;52.310;17.016;2023-03-31T06:57:38;32.60;28.40
65072;DHT22;51663;52.310;17.016;2023-03-31T07:00:41;32.70;28.20
65072;DHT22;51663;52.310;17.016;2023-03-31T07:03:43;32.60;28.20
65072;DHT22;51663;52.310;17.016;2023-03-31T07:06:45;32.70;28.10
65072;DHT22;51663;52.310;17.016;2023-03-31T07:09:47;32.70;28.10
65072;DHT22;51663;52.310;17.016;2023-03-31T07:12:50;32.80;28.10
65072;DHT22;51663;52.310;17.016;2023-03-31T07:15:52;33.30;27.70
65072;DHT22;51663;52.310;17.016;2023-03-31T07:18:54;33.50;27.50
65072;DHT22;51663;52.310;17.016;2023-03-31T07:22:00;33.40;27.80
65072;DHT22;51663;52.310;17.016;2023-03-31T07:25:02;33.30;27.70
65072;DHT22;51663;52.310;17.016;2023-03-31T07:28:04;33.10;28.10
65072;DHT22;51663;52.310;17.016;2023-03-31T07:31:17;33.60;28.10
65072;DHT22;51663;52.310;17.016;2023-03-31T07:34:19;33.70;27.70
65072;DHT22;51663;52.310;17.016;2023-03-31T07:37:21;33.70;27.50
65072;DHT22;51663;52.310;17.016;2023-03-31T07:40:26;33.80;27.50
65072;DHT22;51663;52.310;17.016;2023-03-31T07:43:29;33.80;27.70
65072;DHT22;51663;52.310;17.016;2023-03-31T07:46:31;33.90;27.70
65072;DHT22;51663;52.310;17.016;2023-03-31T07:49:34;34.00;27.60
65072;DHT22;51663;52.310;17.016;2023-03-31T07:52:37;33.60;27.70
65072;DHT22;51663;52.310;17.016;2023-03-31T07:55:39;34.10;27.20
65072;DHT22;51663;52.310;17.016;2023-03-31T07:58:42;34.40;26.90
65072;DHT22;51663;52.310;17.016;2023-03-31T08:01:45;34.40;26.80
65072;DHT22;51663;52.310;17.016;2023-03-31T08:04:47;34.10;26.90
65072;DHT22;51663;52.310;17.016;2023-03-31T08:07:49;34.10;27.20
65072;DHT22;51663;52.310;17.016;2023-03-31T08:10:52;34.60;27.10
65072;DHT22;51663;52.310;17.016;2023-03-31T08:13:55;34.90;26.70
65072;DHT22;51663;52.310;17.016;2023-03-31T08:16:57;35.10;26.50
65072;DHT22;51663;52.310;17.016;2023-03-31T08:20:01;35.30;26.20
65072;DHT22;51663;52.310;17.016;2023-03-31T08:23:08;35.60;26.40
65072;DHT22;51663;52.310;17.016;2023-03-31T08:26:16;35.40;26.10
65072;DHT22;51663;52.310;17.016;2023-03-31T08:29:19;35.40;26.30
65072;DHT22;51663;52.310;17.016;2023-03-31T08:32:22;35.60;26.30
65072;DHT22;51663;52.310;17.016;2023-03-31T08:35:25;35.70;25.90
65072;DHT22;51663;52.310;17.016;2023-03-31T08:38:27;35.80;25.90
65072;DHT22;51663;52.310;17.016;2023-03-31T08:41:57;35.20;26.40
65072;DHT22;51663;52.310;17.016;2023-03-31T08:45:21;35.20;26.30
65072;DHT22;51663;52.310;17.016;2023-03-31T08:48:35;35.30;26.20
65072;DHT22;51663;52.310;17.016;2023-03-31T08:51:42;35.60;25.90
65072;DHT22;51663;52.310;17.016;2023-03-31T08:54:50;35.90;25.60
65072;DHT22;51663;52.310;17.016;2023-03-31T08:58:28;35.60;26.00
65072;DHT22;51663;52.310;17.016;2023-03-31T09:01:41;35.70;26.10
65072;DHT22;51663;52.310;17.016;2023-03-31T09:05:26;35.30;26.00
65072;DHT22;51663;52.310;17.016;2023-03-31T09:08:36;35.40;26.00
65072;DHT22;51663;52.310;17.016;2023-03-31T09:11:48;35.60;26.00
65072;DHT22;51663;52.310;17.016;2023-03-31T09:15:03;35.80;25.90
65072;DHT22;51663;52.310;17.016;2023-03-31T09:18:28;35.20;26.30
65072;DHT22;51663;52.310;17.016;2023-03-31T09:21:33;35.30;26.50
65072;DHT22;51663;52.310;17.016;2023-03-31T09:28:03;35.30;26.20
65072;DHT22;51663;52.310;17.016;2023-03-31T09:31:16;35.30;26.50
65072;DHT22;51663;52.310;17.016;2023-03-31T09:34:24;35.20;26.80
65072;DHT22;51663;52.310;17.016;2023-03-31T09:37:31;35.20;26.90
65072;DHT22;51663;52.310;17.016;2023-03-31T09:40:34;35.20;26.50
65072;DHT22;51663;52.310;17.016;2023-03-31T09:43:36;35.70;26.40
65072;DHT22;51663;52.310;17.016;2023-03-31T09:46:42;35.60;26.20
65072;DHT22;51663;52.310;17.016;2023-03-31T09:49:45;36.10;26.20
65072;DHT22;51663;52.310;17.016;2023-03-31T09:52:57;36.20;26.00
65072;DHT22;51663;52.310;17.016;2023-03-31T09:56:05;36.20;25.90
65072;DHT22;51663;52.310;17.016;2023-03-31T09:59:31;36.20;26.00
65072;DHT22;51663;52.310;17.016;2023-03-31T10:02:36;35.40;26.30
65072;DHT22;51663;52.310;17.016;2023-03-31T10:05:50;35.20;26.60
65072;DHT22;51663;52.310;17.016;2023-03-31T10:12:04;35.70;26.00
65072;DHT22;51663;52.310;17.016;2023-03-31T10:15:22;36.20;25.70
65072;DHT22;51663;52.310;17.016;2023-03-31T10:18:38;36.70;25.20
65072;DHT22;51663;52.310;17.016;2023-03-31T10:21:45;36.40;25.50
65072;DHT22;51663;52.310;17.016;2023-03-31T10:24:48;35.90;25.60
65072;DHT22;51663;52.310;17.016;2023-03-31T10:27:53;35.60;25.60
65072;DHT22;51663;52.310;17.016;2023-03-31T10:30:58;35.60;25.50
65072;DHT22;51663;52.310;17.016;2023-03-31T10:34:10;35.60;25.60
65072;DHT22;51663;52.310;17.016;2023-03-31T10:37:18;35.70;25.50
65072;DHT22;51663;52.310;17.016;2023-03-31T10:40:28;36.20;25.30
65072;DHT22;51663;52.310;17.016;2023-03-31T10:43:46;35.80;25.60
65072;DHT22;51663;52.310;17.016;2023-03-31T10:46:51;35.50;25.80
65072;DHT22;51663;52.310;17.016;2023-03-31T10:49:57;35.50;25.80
65072;DHT22;51663;52.310;17.016;2023-03-31T10:53:11;35.40;26.00
65072;DHT22;51663;52.310;17.016;2023-03-31T10:56:39;35.70;25.90
65072;DHT22;51663;52.310;17.016;2023-03-31T11:00:02;36.00;25.50
65072;DHT22;51663;52.310;17.016;2023-03-31T11:03:37;36.10;25.40
65072;DHT22;51663;52.310;17.016;2023-03-31T11:13:45;35.90;24.80
65072;DHT22;51663;52.310;17.016;2023-03-31T11:17:17;36.40;24.80
65072;DHT22;51663;52.310;17.016;2023-03-31T11:30:26;35.50;26.20
65072;DHT22;51663;52.310;17.016;2023-03-31T11:50:46;34.50;25.70
65072;DHT22;51663;52.310;17.016;2023-03-31T11:53:50;33.10;28.00
65072;DHT22;51663;52.310;17.016;2023-03-31T11:56:54;32.60;28.30
65072;DHT22;51663;52.310;17.016;2023-03-31T12:06:27;33.50;27.70
65072;DHT22;51663;52.310;17.016;2023-03-31T12:09:42;33.50;27.80
65072;DHT22;51663;52.310;17.016;2023-03-31T12:16:37;33.60;27.60
65072;DHT22;51663;52.310;17.016;2023-03-31T12:19:59;33.90;27.70
65072;DHT22;51663;52.310;17.016;2023-03-31T12:23:07;33.10;28.00
65072;DHT22;51663;52.310;17.016;2023-03-31T12:29:38;32.50;28.70
65072;DHT22;51663;52.310;17.016;2023-03-31T12:36:10;32.70;29.90
65072;DHT22;51663;52.310;17.016;2023-03-31T13:02:42;33.80;30.00
65072;DHT22;51663;52.310;17.016;2023-03-31T13:05:47;33.90;29.00
65072;DHT22;51663;52.310;17.016;2023-03-31T13:12:07;34.00;28.90
65072;DHT22;51663;52.310;17.016;2023-03-31T13:15:28;33.60;29.00
65072;DHT22;51663;52.310;17.016;2023-03-31T13:18:32;33.70;29.60
65072;DHT22;51663;52.310;17.016;2023-03-31T13:26:05;34.70;29.40
65072;DHT22;51663;52.310;17.016;2023-03-31T13:52:03;36.00;27.00
65072;DHT22;51663;52.310;17.016;2023-03-31T14:08:54;35.70;27.50
65072;DHT22;51663;52.310;17.016;2023-03-31T14:11:59;35.70;27.10
65072;DHT22;51663;52.310;17.016;2023-03-31T14:15:02;35.70;27.20
65072;DHT22;51663;52.310;17.016;2023-03-31T14:18:06;35.80;27.60
65072;DHT22;51663;52.310;17.016;2023-03-31T14:24:38;35.70;27.10
65072;DHT22;51663;52.310;17.016;2023-03-31T14:31:00;35.90;26.80
65072;DHT22;51663;52.310;17.016;2023-03-31T14:37:54;35.00;26.60
65072;DHT22;51663;52.310;17.016;2023-03-31T14:40:58;33.20;27.60
65072;DHT22;51663;52.310;17.016;2023-03-31T14:44:13;32.60;28.30
65072;DHT22;51663;52.310;17.016;2023-03-31T14:47:26;32.20;29.10
65072;DHT22;51663;52.310;17.016;2023-03-31T14:54:15;31.70;31.10
65072;DHT22;51663;52.310;17.016;2023-03-31T14:57:39;31.50;31.50
65072;DHT22;51663;52.310;17.016;2023-03-31T15:00:45;31.80;31.80
65072;DHT22;51663;52.310;17.016;2023-03-31T15:03:54;32.10;31.50
65072;DHT22;51663;52.310;17.016;2023-03-31T15:07:03;32.30;31.50
65072;DHT22;51663;52.310;17.016;2023-03-31T15:10:07;32.50;30.60
65072;DHT22;51663;52.310;17.016;2023-03-31T15:13:15;32.60;31.10
65072;DHT22;51663;52.310;17.016;2023-03-31T15:16:31;32.40;31.60
65072;DHT22;51663;52.310;17.016;2023-03-31T15:19:36;32.20;31.80
65072;DHT22;51663;52.310;17.016;2023-03-31T15:22:40;32.20;32.10
65072;DHT22;51663;52.310;17.016;2023-03-31T15:25:43;31.90;31.90
65072;DHT22;51663;52.310;17.016;2023-03-31T15:28:53;31.90;32.30
65072;DHT22;51663;52.310;17.016;2023-03-31T15:35:53;31.90;32.90
65072;DHT22;51663;52.310;17.016;2023-03-31T15:39:13;32.20;32.50
65072;DHT22;51663;52.310;17.016;2023-03-31T15:42:21;31.80;32.30
65072;DHT22;51663;52.310;17.016;2023-03-31T15:45:51;32.00;32.40
65072;DHT22;51663;52.310;17.016;2023-03-31T15:49:01;31.90;32.60
65072;DHT22;51663;52.310;17.016;2023-03-31T15:55:44;32.00;32.60
65072;DHT22;51663;52.310;17.016;2023-03-31T15:58:59;32.20;32.50
65072;DHT22;51663;52.310;17.016;2023-03-31T16:02:02;32.20;32.40
65072;DHT22;51663;52.310;17.016;2023-03-31T16:05:06;32.20;32.50
65072;DHT22;51663;52.310;17.016;2023-03-31T16:12:04;31.70;32.90
65072;DHT22;51663;52.310;17.016;2023-03-31T16:15:17;31.90;32.90
65072;DHT22;51663;52.310;17.016;2023-03-31T16:18:41;31.70;32.70
65072;DHT22;51663;52.310;17.016;2023-03-31T16:21:53;31.10;33.30
65072;DHT22;51663;52.310;17.016;2023-03-31T16:24:59;31.10;33.70
65072;DHT22;51663;52.310;17.016;2023-03-31T16:28:17;31.30;33.80
65072;DHT22;51663;52.310;17.016;2023-03-31T16:31:36;31.30;33.60
65072;DHT22;51663;52.310;17.016;2023-03-31T16:35:02;31.60;33.50
65072;DHT22;51663;52.310;17.016;2023-03-31T16:38:13;31.50;33.50
65072;DHT22;51663;52.310;17.016;2023-03-31T16:41:29;31.50;33.50
65072;DHT22;51663;52.310;17.016;2023-03-31T16:44:36;31.90;32.90
65072;DHT22;51663;52.310;17.016;2023-03-31T16:51:25;31.90;32.90
65072;DHT22;51663;52.310;17.016;2023-03-31T16:55:15;32.10;32.70
65072;DHT22;51663;52.310;17.016;2023-03-31T16:58:35;32.40;32.40
65072;DHT22;51663;52.310;17.016;2023-03-31T17:01:45;32.40;32.20
65072;DHT22;51663;52.310;17.016;2023-03-31T17:05:04;32.40;32.20
65072;DHT22;51663;52.310;17.016;2023-03-31T17:15:33;32.00;32.20
65072;DHT22;51663;52.310;17.016;2023-03-31T17:19:26;31.40;32.30
65072;DHT22;51663;52.310;17.016;2023-03-31T17:22:33;31.60;32.80
65072;DHT22;51663;52.310;17.016;2023-03-31T17:26:10;31.50;32.40
65072;DHT22;51663;52.310;17.016;2023-03-31T17:30:02;31.00;32.80
65072;DHT22;51663;52.310;17.016;2023-03-31T17:37:19;31.10;32.20
65072;DHT22;51663;52.310;17.016;2023-03-31T17:40:24;31.00;32.50
65072;DHT22;51663;52.310;17.016;2023-03-31T17:43:36;31.30;32.40
65072;DHT22;51663;52.310;17.016;2023-03-31T17:46:39;31.00;32.50
65072;DHT22;51663;52.310;17.016;2023-03-31T17:49:42;30.60;32.70
65072;DHT22;51663;52.310;17.016;2023-03-31T17:52:44;30.60;32.60
65072;DHT22;51663;52.310;17.016;2023-03-31T17:55:46;30.80;32.80
65072;DHT22;51663;52.310;17.016;2023-03-31T17:58:48;30.90;32.70
65072;DHT22;51663;52.310;17.016;2023-03-31T18:01:51;31.40;32.10
65072;DHT22;51663;52.310;17.016;2023-03-31T18:04:53;31.70;31.70
65072;DHT22;51663;52.310;17.016;2023-03-31T18:07:55;31.90;31.30
65072;DHT22;51663;52.310;17.016;2023-03-31T18:10:59;31.80;31.30
65072;DHT22;51663;52.310;17.016;2023-03-31T18:14:02;31.60;31.50
65072;DHT22;51663;52.310;17.016;2023-03-31T18:17:05;31.80;31.60
65072;DHT22;51663;52.310;17.016;2023-03-31T18:20:08;31.90;31.40
65072;DHT22;51663;52.310;17.016;2023-03-31T18:23:11;32.00;31.40
65072;DHT22;51663;52.310;17.016;2023-03-31T18:26:13;32.20;31.20
65072;DHT22;51663;52.310;17.016;2023-03-31T18:29:15;32.20;31.00
65072;DHT22;51663;52.310;17.016;2023-03-31T18:32:18;32.20;31.00
65072;DHT22;51663;52.310;17.016;2023-03-31T18:35:20;32.20;31.10
65072;DHT22;51663;52.310;17.016;2023-03-31T18:38:25;32.20;31.20
65072;DHT22;51663;52.310;17.016;2023-03-31T18:41:28;32.20;31.20
65072;DHT22;51663;52.310;17.016;2023-03-31T18:44:31;32.10;31.30
65072;DHT22;51663;52.310;17.016;2023-03-31T18:47:34;32.10;31.10
65072;DHT22;51663;52.310;17.016;2023-03-31T18:50:37;32.10;30.90
65072;DHT22;51663;52.310;17.016;2023-03-31T18:53:39;32.20;31.10
65072;DHT22;51663;52.310;17.016;2023-03-31T18:56:42;32.00;30.90
65072;DHT22;51663;52.310;17.016;2023-03-31T18:59:44;32.10;31.00
65072;DHT22;51663;52.310;17.016;2023-03-31T19:02:47;32.00;31.00
65072;DHT22;51663;52.310;17.016;2023-03-31T19:05:49;32.00;31.00
65072;DHT22;51663;52.310;17.016;2023-03-31T19:08:54;32.10;31.20
65072;DHT22;51663;52.310;17.016;2023-03-31T19:11:57;32.10;31.00
65072;DHT22;51663;52.310;17.016;2023-03-31T19:15:00;31.80;31.00
65072;DHT22;51663;52.310;17.016;2023-03-31T19:18:43;31.90;31.40
65072;DHT22;51663;52.310;17.016;2023-03-31T19:22:07;31.60;31.30
65072;DHT22;51663;52.310;17.016;2023-03-31T19:26:31;31.60;31.40
65072;DHT22;51663;52.310;17.016;2023-03-31T19:29:55;31.60;31.50
65072;DHT22;51663;52.310;17.016;2023-03-31T19:33:35;31.60;31.40
65072;DHT22;51663;52.310;17.016;2023-03-31T19:42:20;31.60;31.60
65072;DHT22;51663;52.310;17.016;2023-03-31T19:46:23;31.60;31.40
65072;DHT22;51663;52.310;17.016;2023-03-31T19:50:25;31.30;31.60
65072;DHT22;51663;52.310;17.016;2023-03-31T19:54:30;31.70;31.10
65072;DHT22;51663;52.310;17.016;2023-03-31T19:58:11;31.90;30.90
65072;DHT22;51663;52.310;17.016;2023-03-31T20:01:38;31.90;31.00
65072;DHT22;51663;52.310;17.016;2023-03-31T20:09:18;31.70;31.10
65072;DHT22;51663;52.310;17.016;2023-03-31T20:12:36;31.60;31.90
65072;DHT22;51663;52.310;17.016;2023-03-31T20:16:17;31.60;31.30
65072;DHT22;51663;52.310;17.016;2023-03-31T20:19:41;31.60;31.20
65072;DHT22;51663;52.310;17.016;2023-03-31T20:22:48;31.60;31.20
65072;DHT22;51663;52.310;17.016;2023-03-31T20:25:57;31.40;31.30
65072;DHT22;51663;52.310;17.016;2023-03-31T20:29:34;31.20;31.70
65072;DHT22;51663;52.310;17.016;2023-03-31T20:33:07;31.20;31.60
65072;DHT22;51663;52.310;17.016;2023-03-31T20:36:45;31.10;31.70
65072;DHT22;51663;52.310;17.016;2023-03-31T20:39:56;31.10;31.90
65072;DHT22;51663;52.310;17.016;2023-03-31T20:43:24;31.30;31.70
65072;DHT22;51663;52.310;17.016;2023-03-31T20:46:54;31.40;31.40
65072;DHT22;51663;52.310;17.016;2023-03-31T20:50:37;31.60;31.20
65072;DHT22;51663;52.310;17.016;2023-03-31T20:58:05;31.40;31.10
65072;DHT22;51663;52.310;17.016;2023-03-31T21:05:28;31.50;30.80
65072;DHT22;51663;52.310;17.016;2023-03-31T21:08:39;31.50;31.00
65072;DHT22;51663;52.310;17.016;2023-03-31T21:11:42;31.40;31.00
65072;DHT22;51663;52.310;17.016;2023-03-31T21:14:44;31.60;30.80
65072;DHT22;51663;52.310;17.016;2023-03-31T21:17:47;31.60;30.70
65072;DHT22;51663;52.310;17.016;2023-03-31T21:20:58;31.60;30.50
65072;DHT22;51663;52.310;17.016;2023-03-31T21:24:07;31.70;30.70
65072;DHT22;51663;52.310;17.016;2023-03-31T21:27:12;31.60;30.50
65072;DHT22;51663;52.310;17.016;2023-03-31T21:30:31;31.60;30.60
65072;DHT22;51663;52.310;17.016;2023-03-31T21:33:55;31.70;30.40
65072;DHT22;51663;52.310;17.016;2023-03-31T21:37:47;31.50;30.40
65072;DHT22;51663;52.310;17.016;2023-03-31T21:41:11;31.60;30.50
65072;DHT22;51663;52.310;17.016;2023-03-31T21:48:12;31.60;30.50
65072;DHT22;51663;52.310;17.016;2023-03-31T21:51:53;31.80;30.30
65072;DHT22;51663;52.310;17.016;2023-03-31T21:55:34;31.80;30.20
65072;DHT22;51663;52.310;17.016;2023-03-31T21:59:02;31.60;30.10
65072;DHT22;51663;52.310;17.016;2023-03-31T22:02:56;31.70;30.10
65072;DHT22;51663;52.310;17.016;2023-03-31T22:06:43;31.70;30.00
65072;DHT22;51663;52.310;17.016;2023-03-31T22:10:31;31.80;30.00
65072;DHT22;51663;52.310;17.016;2023-03-31T22:14:09;31.80;30.00
65072;DHT22;51663;52.310;17.016;2023-03-31T22:17:12;31.80;29.80
65072;DHT22;51663;52.310;17.016;2023-03-31T22:20:56;31.80;29.90
65072;DHT22;51663;52.310;17.016;2023-03-31T22:24:11;31.70;30.10
65072;DHT22;51663;52.310;17.016;2023-03-31T22:27:14;31.70;30.10
65072;DHT22;51663;52.310;17.016;2023-03-31T22:30:16;31.70;30.00
65072;DHT22;51663;52.310;17.016;2023-03-31T22:33:42;31.70;30.00
65072;DHT22;51663;52.310;17.016;2023-03-31T22:37:31;31.60;30.00
65072;DHT22;51663;52.310;17.016;2023-03-31T22:41:39;31.50;30.30
65072;DHT22;51663;52.310;17.016;2023-03-31T22:44:41;31.60;30.10
65072;DHT22;51663;52.310;17.016;2023-03-31T23:00:29;31.70;30.20
65072;DHT22;51663;52.310;17.016;2023-03-31T23:04:02;31.50;30.30
65072;DHT22;51663;52.310;17.016;2023-03-31T23:07:44;31.30;30.40
65072;DHT22;51663;52.310;17.016;2023-03-31T23:10:57;31.40;30.60
65072;DHT22;51663;52.310;17.016;2023-03-31T23:14:42;31.40;30.50
65072;DHT22;51663;52.310;17.016;2023-03-31T23:18:29;31.40;30.50
65072;DHT22;51663;52.310;17.016;2023-03-31T23:22:19;31.50;30.50
65072;DHT22;51663;52.310;17.016;2023-03-31T23:25:22;31.20;30.50
65072;DHT22;51663;52.310;17.016;2023-03-31T23:28:25;31.30;30.70
65072;DHT22;51663;52.310;17.016;2023-03-31T23:32:27;31.10;30.70
65072;DHT22;51663;52.310;17.016;2023-03-31T23:35:50;31.00;31.00
65072;DHT22;51663;52.310;17.016;2023-03-31T23:38:55;31.10;31.00
65072;DHT22;51663;52.310;17.016;2023-03-31T23:41:57;31.40;30.90
65072;DHT22;51663;52.310;17.016;2023-03-31T23:45:00;31.50;30.70
65072;DHT22;51663;52.310;17.016;2023-03-31T23:48:02;31.40;30.60
65072;DHT22;51663;52.310;17.016;2023-03-31T23:51:06;31.60;30.40
65072;DHT22;51663;52.310;17.016;2023-03-31T23:54:34;31.70;30.10
65072;DHT22;51663;52.310;17.016;2023-03-31T23:58:08;31.70;30.20
